Startpagina
METAR-TAF:

METAR-TAF

Vliegvelden :

Albert, Frankrijk

breedte: 49-58-21N, lengte: 002-41-29E, hoogte: 111 m

Actueel weer

Dit bericht is 16 minuten geleden gemaakt, om 23:30 UTC
Wind 5 kt uit het noorden
Temperatuur 12°C
Vochtigheid 100%
Druk 1027 hPa
Zicht 10 km of meer
geen wolken onder 1500 m en geen cumulonimbus

METAR: LFAQ 122330Z AUTO 35005KT CAVOK 12/12 Q1027

Tijdstip: 01:46 (23:46 UTC)

Verwachting

Dit bericht is 9 uur en het 46 minuten geleden gemaakt, om 14:00 UTC
Verwachting geldig van 12 om 15 UTC tot 12 om 24 UTC
Wind 7 kt uit het westen
Zicht 10 km of meer
Verspreide wolken op 4000 ft

TAF: LFAQ 121400Z 1215/1224 27007KT 9999 SCT040

Waarnemingen en weersverwachtingen van meer dan 4000 vliegvelden (METAR en TAF).

De beschikbare stations zijn de gele en rode punten op de kaart.

Ga met uw muis naar het station om de naam te zien.

Klik dan om waarnemingen en weersverwachtingen te zien.

kaart wijzigen: klik op de groene knoppen met een zwart kruis om in te zoomen, op de groene knop met een streepje om uit te zoomen of op de groene pijlen voor aangrenzende kaarten.


METAR-TAF: